createdAt,value
2023-04-25T00:01:25.997Z,6.28
2023-04-25T00:03:27.956Z,7.50
2023-04-25T00:05:30.666Z,7.05
2023-04-25T00:07:33.267Z,7.80
2023-04-25T00:09:35.053Z,8.70
2023-04-25T00:11:39.822Z,7.35
2023-04-25T00:13:42.914Z,7.25
2023-04-25T00:15:45.504Z,8.52
2023-04-25T00:17:47.437Z,8.80
2023-04-25T00:19:49.463Z,9.02
2023-04-25T00:21:51.253Z,9.95
2023-04-25T00:23:54.188Z,8.85
2023-04-25T00:25:55.830Z,8.75
2023-04-25T00:27:57.447Z,9.43
2023-04-25T00:29:59.370Z,10.25
2023-04-25T00:32:01.659Z,8.80
2023-04-25T00:34:03.570Z,8.60
2023-04-25T00:36:05.631Z,9.70
2023-04-25T00:38:07.315Z,9.93
2023-04-25T00:40:09.498Z,10.32
2023-04-25T00:42:11.957Z,9.07
2023-04-25T00:44:14.674Z,8.70
2023-04-25T00:46:16.451Z,9.18
2023-04-25T00:48:18.636Z,8.88
2023-04-25T00:50:20.439Z,8.25
2023-04-25T00:52:22.304Z,8.95
2023-04-25T00:54:24.291Z,8.20
2023-04-25T00:56:26.240Z,8.52
2023-04-25T00:58:28.212Z,8.98
2023-04-25T01:00:30.117Z,8.57
2023-04-25T01:02:32.414Z,9.02
2023-04-25T01:04:34.510Z,8.60
2023-04-25T01:06:36.539Z,8.38
2023-04-25T01:08:40.978Z,8.30
2023-04-25T01:10:42.737Z,9.10
2023-04-25T01:12:44.417Z,9.73
2023-04-25T01:14:46.184Z,8.98
2023-04-25T01:16:47.910Z,9.85
2023-04-25T01:18:49.797Z,8.68
2023-04-25T01:20:54.538Z,8.35
2023-04-25T01:22:56.496Z,8.85
2023-04-25T01:24:58.330Z,9.00
2023-04-25T01:27:01.703Z,8.50
2023-04-25T01:29:05.397Z,7.80
2023-04-25T01:31:07.257Z,9.90
2023-04-25T01:33:09.550Z,8.27
2023-04-25T01:35:13.140Z,8.52
2023-04-25T01:37:14.837Z,9.02
2023-04-25T01:39:17.223Z,8.48
2023-04-25T01:41:19.025Z,8.02
2023-04-25T01:43:20.909Z,8.18
2023-04-25T01:45:22.939Z,8.35
2023-04-25T01:47:24.798Z,7.82
2023-04-25T01:49:26.641Z,7.07
2023-04-25T01:51:28.416Z,8.00
2023-04-25T01:53:30.676Z,6.82
2023-04-25T01:55:32.406Z,6.88
2023-04-25T01:57:34.189Z,6.95
2023-04-25T01:59:36.012Z,7.60
2023-04-25T02:01:37.803Z,7.15
2023-04-25T02:03:39.945Z,6.90
2023-04-25T02:05:41.877Z,6.38
2023-04-25T02:07:43.741Z,6.25
2023-04-25T02:09:45.577Z,6.63
2023-04-25T02:11:47.291Z,7.25
2023-04-25T02:13:49.207Z,7.03
2023-04-25T02:15:51.217Z,6.82
2023-04-25T02:17:55.743Z,7.13
2023-04-25T02:19:57.498Z,6.28
2023-04-25T02:21:59.292Z,6.28
2023-04-25T02:24:01.082Z,7.05
2023-04-25T02:26:03.458Z,7.10
2023-04-25T02:28:05.199Z,6.53
2023-04-25T02:30:07.747Z,7.55
2023-04-25T02:32:09.447Z,6.20
2023-04-25T02:34:11.354Z,6.68
2023-04-25T02:36:13.090Z,7.05
2023-04-25T02:38:14.856Z,6.88
2023-04-25T02:40:16.664Z,7.13
2023-04-25T02:42:18.312Z,6.18
2023-04-25T02:44:20.028Z,7.68
2023-04-25T02:46:32.260Z,6.72
2023-04-25T02:48:40.515Z,6.90
2023-04-25T02:50:42.233Z,7.45
2023-04-25T02:52:43.950Z,7.13
2023-04-25T02:54:45.770Z,7.50
2023-04-25T02:56:47.476Z,7.00
2023-04-25T02:58:49.536Z,6.80
2023-04-25T03:00:51.582Z,7.05
2023-04-25T03:02:53.468Z,5.95
2023-04-25T03:04:55.253Z,6.63
2023-04-25T03:06:56.973Z,6.63
2023-04-25T03:08:58.696Z,7.43
2023-04-25T03:11:00.521Z,6.10
2023-04-25T03:13:02.332Z,6.57
2023-04-25T03:15:04.858Z,6.93
2023-04-25T03:17:06.629Z,7.18
2023-04-25T03:19:08.349Z,5.55
2023-04-25T03:21:10.232Z,6.20
2023-04-25T03:23:11.982Z,7.97
2023-04-25T03:25:13.660Z,7.60
2023-04-25T03:27:15.375Z,6.22
2023-04-25T03:29:17.074Z,6.72
2023-04-25T03:31:18.809Z,7.43
2023-04-25T03:33:20.742Z,7.07
2023-04-25T03:35:23.643Z,7.55
2023-04-25T03:37:25.326Z,7.47
2023-04-25T03:39:27.149Z,7.38
2023-04-25T03:41:29.288Z,6.72
2023-04-25T03:43:31.384Z,7.43
2023-04-25T03:45:33.223Z,7.05
2023-04-25T03:47:35.144Z,6.63
2023-04-25T03:49:37.360Z,6.93
2023-04-25T03:51:39.551Z,7.00
2023-04-25T03:53:41.323Z,6.80
2023-04-25T03:55:43.629Z,7.60
2023-04-25T03:57:45.570Z,8.27
2023-04-25T03:59:47.410Z,7.72
2023-04-25T04:01:49.123Z,7.28
2023-04-25T04:05:55.208Z,9.00
2023-04-25T04:07:57.002Z,7.60
2023-04-25T04:09:58.681Z,7.90
2023-04-25T04:12:03.593Z,8.43
2023-04-25T04:14:07.198Z,7.35
2023-04-25T04:16:09.005Z,8.85
2023-04-25T04:18:11.006Z,8.38
2023-04-25T04:20:12.729Z,8.38
2023-04-25T04:22:14.681Z,8.57
2023-04-25T04:24:17.920Z,10.07
2023-04-25T04:26:19.609Z,8.70
2023-04-25T04:28:21.758Z,10.77
2023-04-25T04:30:25.319Z,8.88
2023-04-25T04:32:28.629Z,11.13
2023-04-25T04:34:30.577Z,10.98
2023-04-25T04:36:33.103Z,9.95
2023-04-25T04:38:35.033Z,9.10
2023-04-25T04:40:36.697Z,9.88
2023-04-25T04:42:39.254Z,10.10
2023-04-25T04:44:40.958Z,9.65
2023-04-25T04:46:43.402Z,9.70
2023-04-25T04:48:45.660Z,9.93
2023-04-25T04:50:47.368Z,10.35
2023-04-25T04:52:49.154Z,9.60
2023-04-25T04:54:51.013Z,10.35
2023-04-25T04:56:53.675Z,10.38
2023-04-25T04:58:55.797Z,16.23
2023-04-25T05:00:58.195Z,16.98
2023-04-25T05:03:00.712Z,15.80
2023-04-25T05:05:02.891Z,16.13
2023-04-25T05:07:04.843Z,18.63
2023-04-25T05:09:13.805Z,17.63
2023-04-25T05:11:15.847Z,15.38
2023-04-25T05:13:17.869Z,20.10
2023-04-25T05:15:20.016Z,14.50
2023-04-25T05:17:30.068Z,12.85
2023-04-25T05:19:34.273Z,11.52
2023-04-25T05:21:36.440Z,10.90
2023-04-25T05:23:38.422Z,11.05
2023-04-25T05:25:40.366Z,10.75
2023-04-25T05:27:42.252Z,12.60
2023-04-25T05:29:44.064Z,11.48
2023-04-25T05:31:46.375Z,10.55
2023-04-25T05:33:49.027Z,12.02
2023-04-25T05:35:51.513Z,12.50
2023-04-25T05:38:02.401Z,13.27
2023-04-25T05:40:08.155Z,12.45
2023-04-25T05:42:10.117Z,13.18
2023-04-25T05:44:12.225Z,14.48
2023-04-25T05:46:22.294Z,13.75
2023-04-25T05:48:24.378Z,14.13
2023-04-25T05:50:29.127Z,13.73
2023-04-25T05:52:31.103Z,13.73
2023-04-25T05:54:33.654Z,14.80
2023-04-25T05:56:35.938Z,14.93
2023-04-25T05:58:38.070Z,15.30
2023-04-25T06:00:47.348Z,15.13
2023-04-25T06:02:49.568Z,13.38
2023-04-25T06:04:52.908Z,13.90
2023-04-25T06:06:58.189Z,13.73
2023-04-25T06:09:04.240Z,12.98
2023-04-25T06:11:06.556Z,13.45
2023-04-25T06:13:08.665Z,12.90
2023-04-25T06:15:24.538Z,11.23
2023-04-25T06:17:29.646Z,11.38
2023-04-25T06:19:31.676Z,12.07
2023-04-25T06:21:33.432Z,12.88
2023-04-25T06:23:35.186Z,12.07
2023-04-25T06:25:51.340Z,11.20
2023-04-25T06:27:53.142Z,12.93
2023-04-25T06:29:54.945Z,14.10
2023-04-25T06:31:56.813Z,14.27
2023-04-25T06:34:12.595Z,14.15
2023-04-25T06:36:14.479Z,12.75
2023-04-25T06:38:17.104Z,12.90
2023-04-25T06:40:19.097Z,12.82
2023-04-25T06:42:20.976Z,12.88
2023-04-25T06:44:24.387Z,13.40
2023-04-25T06:46:26.475Z,14.20
2023-04-25T06:48:36.818Z,13.23
2023-04-25T06:50:38.733Z,15.38
2023-04-25T06:52:40.674Z,13.75
2023-04-25T06:54:42.905Z,15.77
2023-04-25T06:56:54.001Z,12.98
2023-04-25T06:58:56.052Z,14.07
2023-04-25T07:00:57.960Z,14.82
2023-04-25T07:03:01.943Z,15.23
2023-04-25T07:05:05.469Z,13.80
2023-04-25T07:07:07.246Z,15.07
2023-04-25T07:09:13.243Z,13.80
2023-04-25T07:11:19.720Z,16.17
2023-04-25T07:13:21.654Z,13.48
2023-04-25T07:15:26.482Z,13.13
2023-04-25T07:17:28.467Z,13.68
2023-04-25T07:19:41.820Z,15.30
2023-04-25T07:21:43.720Z,12.40
2023-04-25T07:23:46.177Z,12.65
2023-04-25T07:25:48.189Z,15.43
2023-04-25T07:28:09.879Z,13.80
2023-04-25T07:30:12.182Z,13.65
2023-04-25T07:32:15.330Z,13.70
2023-04-25T07:34:25.591Z,13.70
2023-04-25T07:36:28.275Z,12.18
2023-04-25T07:38:29.958Z,11.55
2023-04-25T07:40:31.750Z,11.05
2023-04-25T07:42:33.616Z,12.10
2023-04-25T07:44:39.671Z,12.15
2023-04-25T07:46:41.395Z,11.93
2023-04-25T07:48:43.076Z,11.95
2023-04-25T07:50:44.729Z,10.82
2023-04-25T07:52:46.518Z,10.63
2023-04-25T07:54:49.421Z,9.75
2023-04-25T07:56:53.632Z,11.15
2023-04-25T07:58:55.589Z,10.82
2023-04-25T08:00:57.342Z,10.30
2023-04-25T08:02:59.332Z,8.90
2023-04-25T08:05:01.297Z,8.52
2023-04-25T08:07:03.235Z,8.80
2023-04-25T08:09:05.260Z,8.05
2023-04-25T08:11:07.020Z,8.27
2023-04-25T08:13:08.950Z,7.82
2023-04-25T08:15:10.903Z,7.72
2023-04-25T08:17:12.849Z,8.60
2023-04-25T08:19:14.573Z,8.45
2023-04-25T08:21:16.490Z,8.93
2023-04-25T08:23:18.188Z,8.60
2023-04-25T08:25:20.074Z,9.20
2023-04-25T08:27:22.081Z,8.15
2023-04-25T08:29:25.882Z,9.13
2023-04-25T08:31:30.440Z,8.25
2023-04-25T08:33:33.259Z,8.18
2023-04-25T08:35:35.008Z,8.63
2023-04-25T08:37:37.464Z,7.65
2023-04-25T08:39:40.421Z,9.35
2023-04-25T08:41:42.654Z,9.30
2023-04-25T08:43:45.502Z,8.07
2023-04-25T08:45:47.656Z,8.55
2023-04-25T08:47:53.075Z,8.70
2023-04-25T08:49:55.428Z,9.07
2023-04-25T08:52:01.361Z,9.45
2023-04-25T08:56:19.374Z,7.72
2023-04-25T08:58:21.849Z,8.57
2023-04-25T09:00:23.995Z,8.38
2023-04-25T09:02:26.250Z,10.30
2023-04-25T09:04:28.119Z,8.18
2023-04-25T09:06:31.573Z,8.50
2023-04-25T09:08:33.389Z,8.48
2023-04-25T09:10:35.779Z,8.35
2023-04-25T09:12:38.305Z,7.63
2023-04-25T09:14:40.089Z,8.15
2023-04-25T09:16:57.245Z,7.70
2023-04-25T09:18:59.072Z,7.80
2023-04-25T09:21:14.603Z,7.22
2023-04-25T09:23:16.808Z,8.63
2023-04-25T09:25:18.558Z,7.40
2023-04-25T09:27:24.058Z,8.35
2023-04-25T09:29:33.834Z,8.02
2023-04-25T09:31:35.674Z,8.60
2023-04-25T09:33:37.526Z,8.90
2023-04-25T09:35:41.183Z,8.43
2023-04-25T09:37:42.966Z,7.30
2023-04-25T09:39:47.248Z,7.78
2023-04-25T09:41:48.985Z,8.45
2023-04-25T09:43:51.784Z,6.57
2023-04-25T09:45:58.885Z,7.78
2023-04-25T09:48:07.302Z,6.85
2023-04-25T09:50:16.569Z,7.20
2023-04-25T09:52:20.274Z,7.78
2023-04-25T09:54:22.034Z,7.95
2023-04-25T09:56:24.604Z,8.35
2023-04-25T09:58:27.134Z,6.97
2023-04-25T10:00:29.502Z,7.25
2023-04-25T10:02:32.905Z,6.97
2023-04-25T10:04:36.412Z,6.57
2023-04-25T10:06:38.916Z,6.75
2023-04-25T10:08:41.253Z,6.78
2023-04-25T10:10:43.992Z,6.72
2023-04-25T10:12:45.811Z,6.45
2023-04-25T10:14:48.293Z,6.40
2023-04-25T10:16:50.597Z,5.30
2023-04-25T10:18:56.303Z,4.88
2023-04-25T10:21:03.180Z,4.75
2023-04-25T10:23:14.672Z,4.57
2023-04-25T10:25:16.915Z,5.75
2023-04-25T10:27:35.627Z,4.97
2023-04-25T10:29:37.815Z,4.32
2023-04-25T10:31:47.917Z,4.90
2023-04-25T10:33:50.262Z,4.22
2023-04-25T10:35:59.727Z,3.55
2023-04-25T10:38:06.177Z,3.95
2023-04-25T10:40:11.811Z,4.00
2023-04-25T10:42:14.069Z,4.07
2023-04-25T10:44:20.925Z,3.63
2023-04-25T10:46:27.806Z,4.68
2023-04-25T10:48:30.893Z,3.53
2023-04-25T10:50:40.766Z,3.53
2023-04-25T10:52:42.548Z,3.55
2023-04-25T10:54:48.861Z,4.25
2023-04-25T10:56:51.939Z,3.40
2023-04-25T10:59:11.348Z,2.35
2023-04-25T11:01:21.359Z,2.67
2023-04-25T11:03:26.007Z,2.63
2023-04-25T11:05:34.719Z,2.17
2023-04-25T11:08:06.320Z,2.47
2023-04-25T11:10:17.420Z,2.92
2023-04-25T11:12:19.360Z,2.58
2023-04-25T11:14:28.241Z,3.03
2023-04-25T11:16:34.431Z,3.15
2023-04-25T11:18:36.473Z,3.08
2023-04-25T11:20:47.209Z,2.42
2023-04-25T11:22:50.940Z,2.95
2023-04-25T11:24:55.228Z,2.30
2023-04-25T11:26:59.508Z,3.33
2023-04-25T11:29:01.751Z,2.72
2023-04-25T11:31:04.744Z,2.70
2023-04-25T11:33:06.952Z,2.65
2023-04-25T11:35:09.039Z,2.80
2023-04-25T11:37:13.027Z,2.50
2023-04-25T11:39:16.314Z,2.53
2023-04-25T11:41:18.266Z,2.47
2023-04-25T11:43:23.996Z,3.40
2023-04-25T11:45:26.190Z,2.55
2023-04-25T11:47:36.362Z,2.67
2023-04-25T11:49:38.358Z,2.08
2023-04-25T11:51:45.044Z,3.25
2023-04-25T11:53:47.411Z,2.75
2023-04-25T11:55:57.226Z,2.42
2023-04-25T11:58:01.487Z,2.92
2023-04-25T12:00:22.527Z,2.47
2023-04-25T12:02:28.037Z,2.85
2023-04-25T12:04:32.184Z,2.70
2023-04-25T12:06:48.822Z,2.40
2023-04-25T12:09:11.899Z,2.75
2023-04-25T12:11:33.812Z,3.35
2023-04-25T12:13:35.755Z,2.78
2023-04-25T12:15:41.971Z,2.50
2023-04-25T12:17:46.652Z,2.65
2023-04-25T12:19:57.746Z,2.97
2023-04-25T12:21:59.946Z,2.75
2023-04-25T12:24:19.323Z,2.67
2023-04-25T12:26:22.088Z,2.33
2023-04-25T12:28:26.103Z,2.10
2023-04-25T12:30:28.223Z,2.25
2023-04-25T12:32:30.414Z,2.00
2023-04-25T12:34:36.038Z,2.72
2023-04-25T12:36:40.643Z,2.28
2023-04-25T12:38:43.575Z,2.38
2023-04-25T12:40:45.478Z,2.25
2023-04-25T12:42:47.359Z,2.85
2023-04-25T12:44:59.912Z,2.45
2023-04-25T12:47:02.187Z,2.20
2023-04-25T12:49:17.526Z,2.08
2023-04-25T12:51:20.344Z,2.30
2023-04-25T12:53:25.671Z,2.05
2023-04-25T12:55:27.468Z,2.28
2023-04-25T12:57:32.641Z,3.22
2023-04-25T12:59:34.446Z,2.40
2023-04-25T13:01:47.256Z,2.42
2023-04-25T13:03:51.966Z,2.47
2023-04-25T13:05:57.095Z,3.08
2023-04-25T13:07:59.013Z,2.47
2023-04-25T13:10:13.816Z,2.75
2023-04-25T13:12:17.420Z,2.15
2023-04-25T13:14:19.425Z,2.70
2023-04-25T13:16:22.104Z,2.60
2023-04-25T13:18:27.450Z,1.83
2023-04-25T13:20:29.107Z,2.08
2023-04-25T13:22:30.965Z,2.33
2023-04-25T13:24:32.712Z,2.83
2023-04-25T13:26:34.516Z,2.38
2023-04-25T13:28:36.299Z,2.78
2023-04-25T13:30:38.108Z,2.30
2023-04-25T13:32:40.707Z,2.30
2023-04-25T13:34:42.383Z,2.60
2023-04-25T13:36:44.153Z,2.22
2023-04-25T13:38:48.306Z,2.22
2023-04-25T13:40:53.200Z,2.15
2023-04-25T13:42:54.965Z,2.78
2023-04-25T13:44:56.754Z,2.30
2023-04-25T13:46:58.707Z,2.60
2023-04-25T13:49:11.487Z,2.72
2023-04-25T13:51:14.694Z,2.38
2023-04-25T13:53:16.351Z,2.05
2023-04-25T13:55:18.282Z,2.38
2023-04-25T13:57:20.092Z,2.28
2023-04-25T13:59:21.873Z,2.30
2023-04-25T14:01:23.627Z,3.08
2023-04-25T14:03:26.053Z,2.40
2023-04-25T14:05:27.909Z,2.25
2023-04-25T14:07:30.056Z,1.70
2023-04-25T14:09:31.991Z,2.97
2023-04-25T14:11:33.726Z,1.92
2023-04-25T14:13:35.789Z,1.80
2023-04-25T14:15:37.573Z,2.55
2023-04-25T14:17:39.466Z,1.92
2023-04-25T14:19:44.418Z,2.55
2023-04-25T14:21:47.440Z,2.10
2023-04-25T14:23:49.533Z,2.03
2023-04-25T14:25:51.437Z,2.25
2023-04-25T14:27:53.623Z,2.20
2023-04-25T14:29:55.311Z,2.42
2023-04-25T14:31:58.632Z,2.30
2023-04-25T14:34:00.555Z,2.28
2023-04-25T14:36:02.457Z,1.90
2023-04-25T14:38:04.182Z,2.55
2023-04-25T14:40:06.437Z,2.00
2023-04-25T14:42:08.126Z,1.95
2023-04-25T14:44:09.829Z,2.38
2023-04-25T14:46:12.326Z,1.90
2023-04-25T14:48:14.221Z,1.80
2023-04-25T14:50:16.120Z,2.60
2023-04-25T14:52:17.905Z,2.15
2023-04-25T14:54:19.626Z,1.90
2023-04-25T14:56:21.386Z,1.73
2023-04-25T14:58:24.020Z,2.42
2023-04-25T15:00:26.375Z,1.75
2023-04-25T15:02:29.407Z,1.83
2023-04-25T15:04:34.049Z,2.05
2023-04-25T15:06:35.831Z,1.70
2023-04-25T15:08:37.676Z,2.40
2023-04-25T15:10:39.445Z,1.55
2023-04-25T15:12:41.551Z,2.45
2023-04-25T15:14:43.230Z,3.05
2023-04-25T15:16:44.981Z,1.90
2023-04-25T15:18:46.730Z,1.95
2023-04-25T15:20:48.446Z,1.55
2023-04-25T15:22:50.198Z,2.53
2023-04-25T15:24:52.429Z,2.85
2023-04-25T15:26:54.128Z,2.50
2023-04-25T15:28:56.337Z,1.80
2023-04-25T15:30:58.728Z,1.92
2023-04-25T15:33:00.778Z,2.42
2023-04-25T15:35:04.739Z,1.58
2023-04-25T15:37:06.479Z,1.80
2023-04-25T15:39:08.673Z,1.88
2023-04-25T15:41:10.398Z,2.10
2023-04-25T15:43:16.186Z,1.52
2023-04-25T15:45:19.156Z,1.75
2023-04-25T15:47:20.864Z,1.55
2023-04-25T15:49:22.988Z,2.15
2023-04-25T15:51:24.828Z,1.50
2023-04-25T15:53:26.850Z,2.00
2023-04-25T15:55:28.645Z,1.88
2023-04-25T15:57:30.929Z,2.20
2023-04-25T15:59:32.620Z,2.22
2023-04-25T16:01:34.954Z,1.83
2023-04-25T16:03:37.037Z,1.60
2023-04-25T16:05:39.581Z,1.88
2023-04-25T16:07:42.852Z,2.42
2023-04-25T16:09:45.539Z,2.10
2023-04-25T16:11:47.240Z,2.88
2023-04-25T16:13:49.229Z,2.30
2023-04-25T16:15:51.224Z,2.47
2023-04-25T16:17:52.986Z,2.63
2023-04-25T16:19:54.684Z,2.28
2023-04-25T16:21:56.636Z,2.50
2023-04-25T16:23:58.372Z,1.85
2023-04-25T16:26:00.100Z,5.45
2023-04-25T16:28:01.827Z,6.80
2023-04-25T16:30:04.106Z,5.18
2023-04-25T16:32:06.354Z,4.40
2023-04-25T16:34:08.044Z,2.55
2023-04-25T16:36:10.092Z,2.65
2023-04-25T16:38:11.806Z,2.40
2023-04-25T16:40:13.816Z,1.95
2023-04-25T16:42:15.623Z,2.08
2023-04-25T16:44:17.267Z,2.22
2023-04-25T16:46:19.822Z,2.80
2023-04-25T16:48:24.508Z,2.22
2023-04-25T16:50:27.127Z,2.00
2023-04-25T16:52:28.882Z,1.70
2023-04-25T16:54:33.906Z,1.90
2023-04-25T16:56:35.656Z,1.52
2023-04-25T16:58:37.387Z,2.20
2023-04-25T17:00:39.399Z,1.83
2023-04-25T17:02:41.613Z,1.90
2023-04-25T17:04:43.934Z,1.88
2023-04-25T17:06:45.735Z,1.75
2023-04-25T17:08:47.455Z,2.30
2023-04-25T17:10:50.752Z,2.35
2023-04-25T17:12:52.425Z,3.70
2023-04-25T17:14:54.174Z,3.83
2023-04-25T17:16:56.148Z,2.58
2023-04-25T17:18:58.331Z,2.58
2023-04-25T17:21:00.136Z,2.45
2023-04-25T17:23:02.347Z,2.20
2023-04-25T17:25:04.690Z,2.00
2023-04-25T17:27:06.426Z,2.28
2023-04-25T17:29:08.306Z,2.17
2023-04-25T17:31:10.121Z,2.28
2023-04-25T17:33:11.914Z,2.00
2023-04-25T17:35:13.831Z,1.52
2023-04-25T17:37:16.910Z,2.08
2023-04-25T17:39:20.210Z,1.80
2023-04-25T17:41:22.000Z,1.92
2023-04-25T17:43:26.020Z,2.33
2023-04-25T17:45:28.961Z,1.67
2023-04-25T17:47:30.806Z,2.38
2023-04-25T17:49:35.222Z,2.28
2023-04-25T17:51:37.280Z,2.40
2023-04-25T17:53:39.053Z,1.90
2023-04-25T17:55:43.719Z,1.50
2023-04-25T17:57:45.462Z,1.58
2023-04-25T17:59:47.163Z,1.88
2023-04-25T18:01:48.928Z,2.00
2023-04-25T18:03:51.670Z,2.28
2023-04-25T18:05:53.577Z,1.85
2023-04-25T18:07:55.267Z,1.70
2023-04-25T18:09:57.083Z,1.75
2023-04-25T18:11:59.032Z,1.65
2023-04-25T18:14:01.004Z,1.88
2023-04-25T18:16:02.767Z,2.78
2023-04-25T18:18:14.712Z,1.52
2023-04-25T18:20:17.227Z,2.00
2023-04-25T18:22:19.141Z,1.65
2023-04-25T18:24:22.085Z,1.70
2023-04-25T18:26:23.903Z,2.08
2023-04-25T18:28:25.539Z,2.10
2023-04-25T18:30:27.298Z,2.40
2023-04-25T18:32:29.113Z,2.60
2023-04-25T18:34:31.435Z,2.08
2023-04-25T18:36:33.385Z,2.58
2023-04-25T18:38:49.924Z,1.90
2023-04-25T18:41:01.453Z,2.45
2023-04-25T18:43:12.069Z,1.95
2023-04-25T18:45:14.706Z,2.17
2023-04-25T18:47:17.153Z,2.08
2023-04-25T18:49:19.389Z,1.85
2023-04-25T18:51:24.607Z,2.30
2023-04-25T18:53:26.340Z,2.05
2023-04-25T18:55:30.869Z,1.92
2023-04-25T18:57:33.066Z,1.88
2023-04-25T18:59:34.791Z,1.95
2023-04-25T19:01:36.628Z,1.58
2023-04-25T19:03:38.548Z,2.42
2023-04-25T19:05:40.432Z,2.20
2023-04-25T19:07:42.424Z,2.38
2023-04-25T19:09:44.172Z,2.22
2023-04-25T19:11:46.224Z,2.08
2023-04-25T19:13:51.481Z,2.30
2023-04-25T19:15:53.152Z,2.03
2023-04-25T19:17:55.009Z,1.73
2023-04-25T19:19:56.732Z,2.50
2023-04-25T19:21:59.085Z,2.05
2023-04-25T19:24:02.080Z,2.00
2023-04-25T19:26:04.807Z,2.25
2023-04-25T19:28:07.893Z,1.50
2023-04-25T19:30:10.804Z,2.53
2023-04-25T19:32:13.017Z,1.88
2023-04-25T19:34:14.788Z,2.53
2023-04-25T19:36:16.512Z,1.75
2023-04-25T19:38:18.279Z,3.15
2023-04-25T19:40:22.005Z,2.47
2023-04-25T19:42:23.939Z,2.10
2023-04-25T19:44:25.571Z,3.63
2023-04-25T19:46:27.430Z,4.25
2023-04-25T19:48:29.185Z,4.57
2023-04-25T19:50:31.777Z,4.35
2023-04-25T19:52:34.660Z,5.15
2023-04-25T19:54:36.652Z,4.32
2023-04-25T19:56:38.415Z,4.55
2023-04-25T19:58:40.303Z,4.78
2023-04-25T20:00:42.036Z,4.30
2023-04-25T20:02:45.590Z,3.90
2023-04-25T20:04:47.401Z,3.80
2023-04-25T20:06:49.161Z,3.92
2023-04-25T20:08:53.516Z,3.72
2023-04-25T20:10:55.247Z,3.72
2023-04-25T20:12:56.967Z,3.40
2023-04-25T20:14:58.961Z,3.55
2023-04-25T20:17:00.905Z,3.50
2023-04-25T20:19:02.685Z,3.70
2023-04-25T20:21:04.440Z,3.08
2023-04-25T20:23:06.164Z,3.30
2023-04-25T20:25:09.915Z,2.78
2023-04-25T20:27:11.928Z,2.13
2023-04-25T20:29:13.917Z,2.65
2023-04-25T20:31:15.973Z,1.90
2023-04-25T20:33:17.780Z,2.00
2023-04-25T20:35:19.584Z,2.17
2023-04-25T20:37:21.365Z,2.25
2023-04-25T20:39:23.013Z,2.38
2023-04-25T20:41:24.838Z,2.67
2023-04-25T20:43:26.966Z,2.85
2023-04-25T20:45:32.111Z,3.13
2023-04-25T20:47:34.893Z,3.45
2023-04-25T20:49:37.006Z,3.47
2023-04-25T20:51:38.769Z,3.75
2023-04-25T20:53:40.520Z,4.30
2023-04-25T20:55:42.287Z,3.50
2023-04-25T20:57:43.991Z,3.20
2023-04-25T20:59:45.968Z,3.38
2023-04-25T21:01:47.724Z,3.75
2023-04-25T21:03:50.221Z,4.97
2023-04-25T21:05:52.040Z,4.68
2023-04-25T21:07:53.927Z,4.25
2023-04-25T21:09:55.630Z,4.07
2023-04-25T21:11:57.360Z,4.15
2023-04-25T21:13:59.014Z,4.35
2023-04-25T21:16:00.925Z,5.53
2023-04-25T21:18:02.761Z,6.35
2023-04-25T21:20:10.317Z,6.30
2023-04-25T21:22:12.207Z,6.40
2023-04-25T21:24:14.661Z,6.20
2023-04-25T21:26:16.435Z,8.10
2023-04-25T21:28:18.252Z,7.00
2023-04-25T21:30:24.119Z,6.32
2023-04-25T21:32:26.848Z,7.72
2023-04-25T21:34:28.564Z,5.20
2023-04-25T21:36:30.919Z,5.32
2023-04-25T21:38:32.643Z,6.43
2023-04-25T21:40:37.632Z,4.25
2023-04-25T21:42:39.548Z,4.35
2023-04-25T21:44:41.209Z,3.67
2023-04-25T21:46:43.089Z,3.28
2023-04-25T21:48:44.823Z,3.42
2023-04-25T21:50:47.142Z,4.35
2023-04-25T21:52:49.128Z,5.50
2023-04-25T21:54:50.930Z,5.85
2023-04-25T21:56:52.692Z,6.40
2023-04-25T21:58:54.621Z,4.45
2023-04-25T22:00:56.812Z,5.28
2023-04-25T22:02:59.031Z,5.28
2023-04-25T22:05:00.808Z,4.95
2023-04-25T22:07:04.044Z,5.50
2023-04-25T22:09:05.736Z,4.65
2023-04-25T22:11:08.388Z,4.35
2023-04-25T22:13:10.221Z,4.45
2023-04-25T22:15:14.758Z,5.35
2023-04-25T22:17:16.463Z,3.78
2023-04-25T22:19:18.138Z,3.35
2023-04-25T22:21:19.817Z,4.50
2023-04-25T22:23:21.475Z,4.00
2023-04-25T22:25:23.994Z,4.35
2023-04-25T22:27:25.777Z,4.90
2023-04-25T22:29:27.515Z,4.60
2023-04-25T22:31:29.285Z,5.07
2023-04-25T22:33:33.453Z,5.47
2023-04-25T22:35:35.172Z,4.35
2023-04-25T22:37:37.293Z,4.45
2023-04-25T22:39:39.500Z,3.65
2023-04-25T22:41:42.006Z,3.90
2023-04-25T22:43:43.727Z,3.25
2023-04-25T22:45:45.772Z,4.65
2023-04-25T22:47:47.602Z,3.40
2023-04-25T22:49:49.647Z,3.25
2023-04-25T22:51:55.577Z,3.60
2023-04-25T22:53:57.327Z,3.17
2023-04-25T22:55:59.238Z,3.65
2023-04-25T22:58:01.324Z,3.28
2023-04-25T23:00:08.278Z,2.88
2023-04-25T23:02:10.901Z,2.03
2023-04-25T23:04:13.303Z,2.83
2023-04-25T23:06:15.226Z,3.45
2023-04-25T23:08:17.346Z,2.85
2023-04-25T23:10:19.362Z,2.55
2023-04-25T23:12:21.346Z,2.83
2023-04-25T23:14:23.921Z,2.60
2023-04-25T23:16:25.928Z,2.33
2023-04-25T23:18:28.484Z,2.80
2023-04-25T23:20:30.168Z,3.35
2023-04-25T23:22:31.902Z,3.20
2023-04-25T23:24:39.167Z,3.50
2023-04-25T23:26:42.361Z,3.67
2023-04-25T23:28:45.168Z,3.55
2023-04-25T23:30:46.869Z,3.25
2023-04-25T23:32:48.631Z,4.90
2023-04-25T23:34:50.883Z,4.82
2023-04-25T23:36:52.589Z,3.30
2023-04-25T23:38:55.986Z,4.05
2023-04-25T23:40:57.721Z,3.08
2023-04-25T23:43:01.525Z,3.00
2023-04-25T23:45:05.188Z,2.80
2023-04-25T23:47:06.853Z,4.35
2023-04-25T23:49:08.786Z,3.13
2023-04-25T23:51:10.701Z,3.50
2023-04-25T23:53:12.425Z,2.92
2023-04-25T23:55:14.734Z,3.50
2023-04-25T23:57:17.411Z,3.97
2023-04-25T23:59:19.099Z,3.05
